sensor_id;sensor_type;location;lat;lon;timestamp;temperature;humidity
9875;DHT22;4976;46.786;7.632;2023-05-29T12:07:48;24.80;1.00
9875;DHT22;4976;46.786;7.632;2023-05-29T12:10:22;24.80;1.00
9875;DHT22;4976;46.786;7.632;2023-05-29T12:13:06;24.70;1.00
9875;DHT22;4976;46.786;7.632;2023-05-29T12:15:47;24.40;1.00
9875;DHT22;4976;46.786;7.632;2023-05-29T12:18:35;24.20;1.00
9875;DHT22;4976;46.786;7.632;2023-05-29T12:21:58;24.20;1.00
9875;DHT22;4976;46.786;7.632;2023-05-29T15:20:36;25.70;1.00
9875;DHT22;4976;46.786;7.632;2023-05-29T15:23:12;25.50;1.00
9875;DHT22;4976;46.786;7.632;2023-05-29T15:25:58;25.50;1.00
9875;DHT22;4976;46.786;7.632;2023-05-29T15:28:41;25.30;1.00
9875;DHT22;4976;46.786;7.632;2023-05-29T15:31:56;25.30;1.00
9875;DHT22;4976;46.786;7.632;2023-05-29T15:43:44;24.60;1.00
9875;DHT22;4976;46.786;7.632;2023-05-29T15:46:35;24.50;1.00
9875;DHT22;4976;46.786;7.632;2023-05-29T15:55:14;24.30;1.00
9875;DHT22;4976;46.786;7.632;2023-05-29T15:58:07;24.40;1.00
9875;DHT22;4976;46.786;7.632;2023-05-29T16:13:13;24.30;1.00
9875;DHT22;4976;46.786;7.632;2023-05-29T16:15:40;24.40;1.00
9875;DHT22;4976;46.786;7.632;2023-05-29T16:18:07;24.30;1.00
9875;DHT22;4976;46.786;7.632;2023-05-29T16:20:34;24.40;1.00
9875;DHT22;4976;46.786;7.632;2023-05-29T16:23:01;24.70;1.00
9875;DHT22;4976;46.786;7.632;2023-05-29T16:25:28;25.00;1.00
9875;DHT22;4976;46.786;7.632;2023-05-29T16:27:55;25.20;1.00
9875;DHT22;4976;46.786;7.632;2023-05-29T16:30:24;25.40;1.00
9875;DHT22;4976;46.786;7.632;2023-05-29T16:32:51;25.60;1.00
9875;DHT22;4976;46.786;7.632;2023-05-29T16:35:17;26.30;1.00
9875;DHT22;4976;46.786;7.632;2023-05-29T16:37:47;27.90;1.00
9875;DHT22;4976;46.786;7.632;2023-05-29T16:40:15;28.60;1.00
9875;DHT22;4976;46.786;7.632;2023-05-29T16:42:47;27.50;1.00
9875;DHT22;4976;46.786;7.632;2023-05-29T16:45:14;27.70;1.00
9875;DHT22;4976;46.786;7.632;2023-05-29T16:47:42;29.20;1.00
9875;DHT22;4976;46.786;7.632;2023-05-29T16:50:11;30.70;1.00
9875;DHT22;4976;46.786;7.632;2023-05-29T16:52:38;30.30;1.00
9875;DHT22;4976;46.786;7.632;2023-05-29T16:55:06;29.90;1.00
9875;DHT22;4976;46.786;7.632;2023-05-29T16:57:33;31.60;1.00
9875;DHT22;4976;46.786;7.632;2023-05-29T17:00:02;32.80;1.00
9875;DHT22;4976;46.786;7.632;2023-05-29T17:02:28;32.80;1.00
9875;DHT22;4976;46.786;7.632;2023-05-29T17:04:57;32.20;1.00
9875;DHT22;4976;46.786;7.632;2023-05-29T17:07:24;30.40;1.00
9875;DHT22;4976;46.786;7.632;2023-05-29T17:09:51;28.90;1.00
9875;DHT22;4976;46.786;7.632;2023-05-29T17:12:19;29.10;1.00
9875;DHT22;4976;46.786;7.632;2023-05-29T17:14:47;29.00;1.00
9875;DHT22;4976;46.786;7.632;2023-05-29T17:17:15;29.70;1.00
9875;DHT22;4976;46.786;7.632;2023-05-29T17:19:42;29.10;1.00
9875;DHT22;4976;46.786;7.632;2023-05-29T17:22:10;28.70;1.00
9875;DHT22;4976;46.786;7.632;2023-05-29T17:24:39;28.50;1.00
9875;DHT22;4976;46.786;7.632;2023-05-29T17:27:06;27.80;1.00
9875;DHT22;4976;46.786;7.632;2023-05-29T17:29:33;28.10;1.00
9875;DHT22;4976;46.786;7.632;2023-05-29T17:32:01;28.70;1.00
9875;DHT22;4976;46.786;7.632;2023-05-29T17:34:30;29.40;1.00
9875;DHT22;4976;46.786;7.632;2023-05-29T17:36:57;29.00;1.00
9875;DHT22;4976;46.786;7.632;2023-05-29T17:39:25;28.10;1.00
9875;DHT22;4976;46.786;7.632;2023-05-29T17:41:52;27.20;1.00
9875;DHT22;4976;46.786;7.632;2023-05-29T17:44:19;27.40;1.00
9875;DHT22;4976;46.786;7.632;2023-05-29T17:46:46;28.20;1.00
9875;DHT22;4976;46.786;7.632;2023-05-29T17:49:13;28.60;1.00
9875;DHT22;4976;46.786;7.632;2023-05-29T17:51:40;28.50;1.00
9875;DHT22;4976;46.786;7.632;2023-05-29T17:54:06;28.40;1.00
9875;DHT22;4976;46.786;7.632;2023-05-29T17:56:37;28.00;1.00
9875;DHT22;4976;46.786;7.632;2023-05-29T17:59:07;27.20;1.00
9875;DHT22;4976;46.786;7.632;2023-05-29T18:01:36;25.30;1.00
9875;DHT22;4976;46.786;7.632;2023-05-29T18:04:03;24.00;1.00
9875;DHT22;4976;46.786;7.632;2023-05-29T18:06:30;23.30;99.90
9875;DHT22;4976;46.786;7.632;2023-05-29T18:09:00;23.00;99.90
9875;DHT22;4976;46.786;7.632;2023-05-29T18:11:27;22.80;99.90
9875;DHT22;4976;46.786;7.632;2023-05-29T18:13:58;22.60;99.90
9875;DHT22;4976;46.786;7.632;2023-05-29T18:16:25;22.50;99.90
9875;DHT22;4976;46.786;7.632;2023-05-29T18:18:52;22.40;99.90
9875;DHT22;4976;46.786;7.632;2023-05-29T18:21:21;22.30;99.90
9875;DHT22;4976;46.786;7.632;2023-05-29T18:23:50;22.20;99.90
9875;DHT22;4976;46.786;7.632;2023-05-29T18:26:23;22.10;99.90
9875;DHT22;4976;46.786;7.632;2023-05-29T18:28:51;22.10;99.90
9875;DHT22;4976;46.786;7.632;2023-05-29T18:31:21;22.00;99.90
9875;DHT22;4976;46.786;7.632;2023-05-29T18:33:48;21.90;99.90
9875;DHT22;4976;46.786;7.632;2023-05-29T18:36:20;21.80;99.90
9875;DHT22;4976;46.786;7.632;2023-05-29T18:38:53;21.70;99.90
9875;DHT22;4976;46.786;7.632;2023-05-29T18:41:21;21.60;99.90
9875;DHT22;4976;46.786;7.632;2023-05-29T18:43:51;21.60;99.90
9875;DHT22;4976;46.786;7.632;2023-05-29T18:46:18;21.50;99.90
9875;DHT22;4976;46.786;7.632;2023-05-29T18:48:47;21.40;99.90
9875;DHT22;4976;46.786;7.632;2023-05-29T18:54:17;21.30;99.90
9875;DHT22;4976;46.786;7.632;2023-05-29T18:56:44;21.30;99.90
9875;DHT22;4976;46.786;7.632;2023-05-29T18:59:11;21.20;99.90
9875;DHT22;4976;46.786;7.632;2023-05-29T19:01:39;21.10;99.90
9875;DHT22;4976;46.786;7.632;2023-05-29T19:04:07;21.00;99.90
9875;DHT22;4976;46.786;7.632;2023-05-29T19:06:35;20.90;99.90
9875;DHT22;4976;46.786;7.632;2023-05-29T19:09:04;20.90;99.90
9875;DHT22;4976;46.786;7.632;2023-05-29T19:11:32;20.90;99.90
9875;DHT22;4976;46.786;7.632;2023-05-29T19:13:59;20.80;99.90
9875;DHT22;4976;46.786;7.632;2023-05-29T19:16:26;20.80;99.90
9875;DHT22;4976;46.786;7.632;2023-05-29T19:18:56;20.70;99.90
9875;DHT22;4976;46.786;7.632;2023-05-29T19:21:26;20.60;99.90
9875;DHT22;4976;46.786;7.632;2023-05-29T19:23:53;20.50;99.90
9875;DHT22;4976;46.786;7.632;2023-05-29T19:26:20;20.40;99.90
9875;DHT22;4976;46.786;7.632;2023-05-29T19:28:51;20.40;99.90
9875;DHT22;4976;46.786;7.632;2023-05-29T19:31:24;20.30;99.90
9875;DHT22;4976;46.786;7.632;2023-05-29T19:34:05;20.30;99.90
9875;DHT22;4976;46.786;7.632;2023-05-29T19:36:35;20.30;99.90
9875;DHT22;4976;46.786;7.632;2023-05-29T19:39:02;20.30;99.90
9875;DHT22;4976;46.786;7.632;2023-05-29T19:41:30;20.20;99.90
9875;DHT22;4976;46.786;7.632;2023-05-29T19:43:56;20.20;99.90
9875;DHT22;4976;46.786;7.632;2023-05-29T19:46:23;20.10;99.90
9875;DHT22;4976;46.786;7.632;2023-05-29T19:48:50;20.10;99.90
9875;DHT22;4976;46.786;7.632;2023-05-29T19:51:17;20.00;99.90
9875;DHT22;4976;46.786;7.632;2023-05-29T19:53:47;20.00;99.90
9875;DHT22;4976;46.786;7.632;2023-05-29T19:56:17;19.90;99.90
9875;DHT22;4976;46.786;7.632;2023-05-29T19:58:44;19.90;99.90
9875;DHT22;4976;46.786;7.632;2023-05-29T20:01:12;19.80;99.90
9875;DHT22;4976;46.786;7.632;2023-05-29T20:03:40;19.70;99.90
9875;DHT22;4976;46.786;7.632;2023-05-29T20:06:27;19.60;99.90
9875;DHT22;4976;46.786;7.632;2023-05-29T20:08:59;19.50;99.90
9875;DHT22;4976;46.786;7.632;2023-05-29T20:11:26;19.50;99.90
9875;DHT22;4976;46.786;7.632;2023-05-29T20:13:53;19.40;99.90
9875;DHT22;4976;46.786;7.632;2023-05-29T20:16:25;19.30;99.90
9875;DHT22;4976;46.786;7.632;2023-05-29T20:18:53;19.20;99.90
9875;DHT22;4976;46.786;7.632;2023-05-29T20:21:20;19.20;99.90
9875;DHT22;4976;46.786;7.632;2023-05-29T20:23:47;19.10;99.90
9875;DHT22;4976;46.786;7.632;2023-05-29T20:26:17;19.00;99.90
9875;DHT22;4976;46.786;7.632;2023-05-29T20:28:44;18.90;99.90
9875;DHT22;4976;46.786;7.632;2023-05-29T20:31:11;18.80;99.90
9875;DHT22;4976;46.786;7.632;2023-05-29T20:33:37;18.80;99.90
9875;DHT22;4976;46.786;7.632;2023-05-29T20:36:07;18.80;99.90
9875;DHT22;4976;46.786;7.632;2023-05-29T20:38:35;18.80;99.90
9875;DHT22;4976;46.786;7.632;2023-05-29T20:41:03;18.80;99.90
9875;DHT22;4976;46.786;7.632;2023-05-29T20:43:32;18.70;99.90
9875;DHT22;4976;46.786;7.632;2023-05-29T20:46:01;18.70;99.90
9875;DHT22;4976;46.786;7.632;2023-05-29T20:48:29;18.60;99.90
9875;DHT22;4976;46.786;7.632;2023-05-29T20:50:59;18.50;99.90
9875;DHT22;4976;46.786;7.632;2023-05-29T20:53:26;18.50;99.90
9875;DHT22;4976;46.786;7.632;2023-05-29T20:55:53;18.50;99.90
9875;DHT22;4976;46.786;7.632;2023-05-29T20:58:20;18.40;99.90
9875;DHT22;4976;46.786;7.632;2023-05-29T21:00:48;18.40;99.90
9875;DHT22;4976;46.786;7.632;2023-05-29T21:03:15;18.50;99.90
9875;DHT22;4976;46.786;7.632;2023-05-29T21:05:43;18.50;99.90
9875;DHT22;4976;46.786;7.632;2023-05-29T21:08:10;18.50;99.90
9875;DHT22;4976;46.786;7.632;2023-05-29T21:10:39;18.40;99.90
9875;DHT22;4976;46.786;7.632;2023-05-29T21:13:07;18.50;99.90
9875;DHT22;4976;46.786;7.632;2023-05-29T21:15:33;18.50;99.90
9875;DHT22;4976;46.786;7.632;2023-05-29T21:18:02;18.40;99.90
9875;DHT22;4976;46.786;7.632;2023-05-29T21:20:29;18.30;99.90
9875;DHT22;4976;46.786;7.632;2023-05-29T21:22:59;18.10;99.90
9875;DHT22;4976;46.786;7.632;2023-05-29T21:25:26;17.70;1.00
9875;DHT22;4976;46.786;7.632;2023-05-29T21:27:53;17.60;1.00
9875;DHT22;4976;46.786;7.632;2023-05-29T21:30:20;17.50;1.00
9875;DHT22;4976;46.786;7.632;2023-05-29T21:32:47;17.30;1.00
9875;DHT22;4976;46.786;7.632;2023-05-29T21:35:16;17.30;1.00
9875;DHT22;4976;46.786;7.632;2023-05-29T21:37:43;17.30;1.00
9875;DHT22;4976;46.786;7.632;2023-05-29T21:40:10;17.30;1.00
9875;DHT22;4976;46.786;7.632;2023-05-29T21:42:37;17.20;1.00
9875;DHT22;4976;46.786;7.632;2023-05-29T21:45:04;17.10;1.00
9875;DHT22;4976;46.786;7.632;2023-05-29T21:47:32;17.10;1.00
9875;DHT22;4976;46.786;7.632;2023-05-29T21:49:59;17.00;1.00
9875;DHT22;4976;46.786;7.632;2023-05-29T21:52:27;17.00;1.00
9875;DHT22;4976;46.786;7.632;2023-05-29T21:54:54;17.10;1.00
9875;DHT22;4976;46.786;7.632;2023-05-29T21:57:21;17.00;1.00
9875;DHT22;4976;46.786;7.632;2023-05-29T21:59:50;17.00;1.00
